Terminal Aerodrome Forecast
Issued by NWS

Home | Current Version | Previous Version | Text Only | Print | Product List | Glossary On
Versions: 1 2 3 4 5 6 7 8 9 10 11 12 13 14 15
685
FTUS46 KSGX 241120
TAFSNA
TAF
KSNA 241120Z 2412/2512 13005KT P6SM SCT018 BKN025
      TEMPO 2412/2416 -SHRA BKN018
     FM241800 21011KT P6SM SCT025
     FM250300 22005KT P6SM BKN025
      TEMPO 2508/2512 -SHRA BKN018=

USA.gov is the U.S. government's official web portal to all federal, state and local government web resources and services.